sensor_id;sensor_type;location;lat;lon;timestamp;temperature;humidity
1277;DHT22;631;51.024;13.826;2022-10-26T00:02:14;8.80;99.90
1277;DHT22;631;51.024;13.826;2022-10-26T00:04:39;8.80;99.90
1277;DHT22;631;51.024;13.826;2022-10-26T00:07:05;8.80;99.90
1277;DHT22;631;51.024;13.826;2022-10-26T00:09:30;8.80;99.90
1277;DHT22;631;51.024;13.826;2022-10-26T00:11:56;8.80;99.90
1277;DHT22;631;51.024;13.826;2022-10-26T00:14:22;8.80;99.90
1277;DHT22;631;51.024;13.826;2022-10-26T00:16:48;8.80;99.90
1277;DHT22;631;51.024;13.826;2022-10-26T00:19:13;8.80;99.90
1277;DHT22;631;51.024;13.826;2022-10-26T00:21:39;8.80;99.90
1277;DHT22;631;51.024;13.826;2022-10-26T00:24:04;8.70;99.90
1277;DHT22;631;51.024;13.826;2022-10-26T00:26:30;8.80;99.90
1277;DHT22;631;51.024;13.826;2022-10-26T00:28:56;8.80;99.90
1277;DHT22;631;51.024;13.826;2022-10-26T00:31:23;8.70;99.90
1277;DHT22;631;51.024;13.826;2022-10-26T00:33:53;8.70;99.90
1277;DHT22;631;51.024;13.826;2022-10-26T00:36:20;8.70;99.90
1277;DHT22;631;51.024;13.826;2022-10-26T00:38:49;8.70;99.90
1277;DHT22;631;51.024;13.826;2022-10-26T00:41:18;8.70;99.90
1277;DHT22;631;51.024;13.826;2022-10-26T00:43:44;8.60;99.90
1277;DHT22;631;51.024;13.826;2022-10-26T00:46:14;8.60;99.90
1277;DHT22;631;51.024;13.826;2022-10-26T00:48:46;8.60;99.90
1277;DHT22;631;51.024;13.826;2022-10-26T00:51:41;8.60;99.90
1277;DHT22;631;51.024;13.826;2022-10-26T00:54:08;8.50;99.90
1277;DHT22;631;51.024;13.826;2022-10-26T00:56:35;8.60;99.90
1277;DHT22;631;51.024;13.826;2022-10-26T00:59:04;8.60;99.90
1277;DHT22;631;51.024;13.826;2022-10-26T01:01:32;8.50;99.90
1277;DHT22;631;51.024;13.826;2022-10-26T01:04:00;8.50;99.90
1277;DHT22;631;51.024;13.826;2022-10-26T01:06:28;8.50;99.90
1277;DHT22;631;51.024;13.826;2022-10-26T01:08:54;8.50;99.90
1277;DHT22;631;51.024;13.826;2022-10-26T01:11:20;8.50;99.90
1277;DHT22;631;51.024;13.826;2022-10-26T01:13:47;8.50;99.90
1277;DHT22;631;51.024;13.826;2022-10-26T01:21:57;8.50;99.90
1277;DHT22;631;51.024;13.826;2022-10-26T01:27:34;8.40;99.90
1277;DHT22;631;51.024;13.826;2022-10-26T01:30:13;8.40;99.90
1277;DHT22;631;51.024;13.826;2022-10-26T01:35:31;8.30;99.90
1277;DHT22;631;51.024;13.826;2022-10-26T01:40:51;8.30;99.90
1277;DHT22;631;51.024;13.826;2022-10-26T01:43:19;8.30;99.90
1277;DHT22;631;51.024;13.826;2022-10-26T01:45:46;8.30;99.90
1277;DHT22;631;51.024;13.826;2022-10-26T01:48:16;8.20;99.90
1277;DHT22;631;51.024;13.826;2022-10-26T01:50:44;8.20;99.90
1277;DHT22;631;51.024;13.826;2022-10-26T01:53:13;8.20;99.90
1277;DHT22;631;51.024;13.826;2022-10-26T01:55:50;8.20;99.90
1277;DHT22;631;51.024;13.826;2022-10-26T02:06:30;8.30;99.90
1277;DHT22;631;51.024;13.826;2022-10-26T02:11:37;8.20;99.90
1277;DHT22;631;51.024;13.826;2022-10-26T02:14:43;8.20;99.90
1277;DHT22;631;51.024;13.826;2022-10-26T02:20:02;8.20;99.90
1277;DHT22;631;51.024;13.826;2022-10-26T02:22:41;8.20;99.90
1277;DHT22;631;51.024;13.826;2022-10-26T02:25:17;8.20;99.90
1277;DHT22;631;51.024;13.826;2022-10-26T02:27:46;8.20;99.90
1277;DHT22;631;51.024;13.826;2022-10-26T02:30:14;8.10;99.90
1277;DHT22;631;51.024;13.826;2022-10-26T02:32:44;8.10;99.90
1277;DHT22;631;51.024;13.826;2022-10-26T02:35:12;8.00;99.90
1277;DHT22;631;51.024;13.826;2022-10-26T02:37:40;8.00;99.90
1277;DHT22;631;51.024;13.826;2022-10-26T02:40:12;8.00;99.90
1277;DHT22;631;51.024;13.826;2022-10-26T02:42:41;8.10;99.90
1277;DHT22;631;51.024;13.826;2022-10-26T02:45:11;8.00;99.90
1277;DHT22;631;51.024;13.826;2022-10-26T02:47:38;8.00;99.90
1277;DHT22;631;51.024;13.826;2022-10-26T02:50:04;8.00;99.90
1277;DHT22;631;51.024;13.826;2022-10-26T02:52:41;8.00;99.90
1277;DHT22;631;51.024;13.826;2022-10-26T02:55:24;8.00;99.90
1277;DHT22;631;51.024;13.826;2022-10-26T02:57:56;8.00;99.90
1277;DHT22;631;51.024;13.826;2022-10-26T03:00:23;8.00;99.90
1277;DHT22;631;51.024;13.826;2022-10-26T03:02:54;8.00;99.90
1277;DHT22;631;51.024;13.826;2022-10-26T03:05:28;8.00;99.90
1277;DHT22;631;51.024;13.826;2022-10-26T03:07:55;8.00;99.90
1277;DHT22;631;51.024;13.826;2022-10-26T03:10:21;7.90;99.90
1277;DHT22;631;51.024;13.826;2022-10-26T03:12:47;7.90;99.90
1277;DHT22;631;51.024;13.826;2022-10-26T03:15:13;7.90;99.90
1277;DHT22;631;51.024;13.826;2022-10-26T03:17:39;7.90;99.90
1277;DHT22;631;51.024;13.826;2022-10-26T03:20:05;7.90;99.90
1277;DHT22;631;51.024;13.826;2022-10-26T03:22:31;7.90;99.90
1277;DHT22;631;51.024;13.826;2022-10-26T03:24:57;7.90;99.90
1277;DHT22;631;51.024;13.826;2022-10-26T03:27:22;7.90;99.90
1277;DHT22;631;51.024;13.826;2022-10-26T03:29:48;7.90;99.90
1277;DHT22;631;51.024;13.826;2022-10-26T03:32:13;7.90;99.90
1277;DHT22;631;51.024;13.826;2022-10-26T03:34:39;7.90;99.90
1277;DHT22;631;51.024;13.826;2022-10-26T03:37:04;7.90;99.90
1277;DHT22;631;51.024;13.826;2022-10-26T03:39:30;7.90;99.90
1277;DHT22;631;51.024;13.826;2022-10-26T03:41:55;7.90;99.90
1277;DHT22;631;51.024;13.826;2022-10-26T03:44:21;7.90;99.90
1277;DHT22;631;51.024;13.826;2022-10-26T03:46:47;7.90;99.90
1277;DHT22;631;51.024;13.826;2022-10-26T03:49:12;7.90;99.90
1277;DHT22;631;51.024;13.826;2022-10-26T03:51:38;7.90;99.90
1277;DHT22;631;51.024;13.826;2022-10-26T03:54:04;7.80;99.90
1277;DHT22;631;51.024;13.826;2022-10-26T03:56:29;7.80;99.90
1277;DHT22;631;51.024;13.826;2022-10-26T03:58:55;7.80;99.90
1277;DHT22;631;51.024;13.826;2022-10-26T04:01:21;7.80;99.90
1277;DHT22;631;51.024;13.826;2022-10-26T04:03:46;7.80;99.90
1277;DHT22;631;51.024;13.826;2022-10-26T04:06:12;7.70;99.90
1277;DHT22;631;51.024;13.826;2022-10-26T04:08:38;7.70;99.90
1277;DHT22;631;51.024;13.826;2022-10-26T04:11:03;7.80;99.90
1277;DHT22;631;51.024;13.826;2022-10-26T04:13:29;7.70;99.90
1277;DHT22;631;51.024;13.826;2022-10-26T04:15:55;7.70;99.90
1277;DHT22;631;51.024;13.826;2022-10-26T04:18:20;7.70;99.90
1277;DHT22;631;51.024;13.826;2022-10-26T04:20:46;7.60;99.90
1277;DHT22;631;51.024;13.826;2022-10-26T04:23:14;7.60;99.90
1277;DHT22;631;51.024;13.826;2022-10-26T04:25:40;7.60;99.90
1277;DHT22;631;51.024;13.826;2022-10-26T04:28:08;7.60;99.90
1277;DHT22;631;51.024;13.826;2022-10-26T04:30:34;7.60;99.90
1277;DHT22;631;51.024;13.826;2022-10-26T04:33:00;7.60;99.90
1277;DHT22;631;51.024;13.826;2022-10-26T04:35:26;7.60;99.90
1277;DHT22;631;51.024;13.826;2022-10-26T04:37:57;7.60;99.90
1277;DHT22;631;51.024;13.826;2022-10-26T04:40:23;7.50;99.90
1277;DHT22;631;51.024;13.826;2022-10-26T04:42:48;7.50;99.90
1277;DHT22;631;51.024;13.826;2022-10-26T04:45:15;7.60;99.90
1277;DHT22;631;51.024;13.826;2022-10-26T04:47:41;7.50;99.90
1277;DHT22;631;51.024;13.826;2022-10-26T04:50:07;7.50;99.90
1277;DHT22;631;51.024;13.826;2022-10-26T04:52:34;7.50;99.90
1277;DHT22;631;51.024;13.826;2022-10-26T04:55:00;7.50;99.90
1277;DHT22;631;51.024;13.826;2022-10-26T04:57:25;7.50;99.90
1277;DHT22;631;51.024;13.826;2022-10-26T04:59:51;7.50;99.90
1277;DHT22;631;51.024;13.826;2022-10-26T05:02:16;7.50;99.90
1277;DHT22;631;51.024;13.826;2022-10-26T05:04:42;7.50;99.90
1277;DHT22;631;51.024;13.826;2022-10-26T05:07:07;7.50;99.90
1277;DHT22;631;51.024;13.826;2022-10-26T05:09:33;7.50;99.90
1277;DHT22;631;51.024;13.826;2022-10-26T05:11:59;7.50;99.90
1277;DHT22;631;51.024;13.826;2022-10-26T05:14:24;7.40;99.90
1277;DHT22;631;51.024;13.826;2022-10-26T05:16:50;7.50;99.90
1277;DHT22;631;51.024;13.826;2022-10-26T05:19:16;7.50;99.90
1277;DHT22;631;51.024;13.826;2022-10-26T05:21:41;7.40;99.90
1277;DHT22;631;51.024;13.826;2022-10-26T05:24:07;7.40;99.90
1277;DHT22;631;51.024;13.826;2022-10-26T05:26:32;7.40;99.90
1277;DHT22;631;51.024;13.826;2022-10-26T05:28:58;7.40;99.90
1277;DHT22;631;51.024;13.826;2022-10-26T05:31:24;7.30;99.90
1277;DHT22;631;51.024;13.826;2022-10-26T05:33:50;7.30;99.90
1277;DHT22;631;51.024;13.826;2022-10-26T05:36:18;7.40;99.90
1277;DHT22;631;51.024;13.826;2022-10-26T05:38:44;7.30;99.90
1277;DHT22;631;51.024;13.826;2022-10-26T05:41:09;7.40;99.90
1277;DHT22;631;51.024;13.826;2022-10-26T05:43:35;7.30;99.90
1277;DHT22;631;51.024;13.826;2022-10-26T05:46:00;7.40;99.90
1277;DHT22;631;51.024;13.826;2022-10-26T05:48:26;7.40;99.90
1277;DHT22;631;51.024;13.826;2022-10-26T05:50:52;7.40;99.90
1277;DHT22;631;51.024;13.826;2022-10-26T05:53:17;7.50;99.90
1277;DHT22;631;51.024;13.826;2022-10-26T05:55:43;7.50;99.90
1277;DHT22;631;51.024;13.826;2022-10-26T05:58:13;7.40;99.90
1277;DHT22;631;51.024;13.826;2022-10-26T06:00:58;7.50;99.90
1277;DHT22;631;51.024;13.826;2022-10-26T06:06:29;7.50;99.90
1277;DHT22;631;51.024;13.826;2022-10-26T06:08:57;7.50;99.90
1277;DHT22;631;51.024;13.826;2022-10-26T06:11:23;7.60;99.90
1277;DHT22;631;51.024;13.826;2022-10-26T06:13:49;7.60;99.90
1277;DHT22;631;51.024;13.826;2022-10-26T06:25:10;7.70;99.90
1277;DHT22;631;51.024;13.826;2022-10-26T06:30:21;7.80;99.90
1277;DHT22;631;51.024;13.826;2022-10-26T06:32:48;7.80;99.90
1277;DHT22;631;51.024;13.826;2022-10-26T06:38:17;7.90;99.90
1277;DHT22;631;51.024;13.826;2022-10-26T06:40:47;7.90;99.90
1277;DHT22;631;51.024;13.826;2022-10-26T06:43:27;8.00;99.90
1277;DHT22;631;51.024;13.826;2022-10-26T06:46:00;8.10;99.90
1277;DHT22;631;51.024;13.826;2022-10-26T06:48:34;8.00;99.90
1277;DHT22;631;51.024;13.826;2022-10-26T06:51:02;8.10;99.90
1277;DHT22;631;51.024;13.826;2022-10-26T06:53:35;8.10;99.90
1277;DHT22;631;51.024;13.826;2022-10-26T06:56:03;8.10;99.90
1277;DHT22;631;51.024;13.826;2022-10-26T06:58:34;8.20;99.90
1277;DHT22;631;51.024;13.826;2022-10-26T07:01:01;8.30;99.90
1277;DHT22;631;51.024;13.826;2022-10-26T07:03:26;8.40;99.90
1277;DHT22;631;51.024;13.826;2022-10-26T07:05:52;8.40;99.90
1277;DHT22;631;51.024;13.826;2022-10-26T07:08:17;8.50;99.90
1277;DHT22;631;51.024;13.826;2022-10-26T07:10:43;8.60;99.90
1277;DHT22;631;51.024;13.826;2022-10-26T07:13:09;8.70;99.90
1277;DHT22;631;51.024;13.826;2022-10-26T07:15:36;8.70;99.90
1277;DHT22;631;51.024;13.826;2022-10-26T07:18:04;8.80;99.90
1277;DHT22;631;51.024;13.826;2022-10-26T07:20:31;8.90;99.90
1277;DHT22;631;51.024;13.826;2022-10-26T07:22:57;9.10;99.90
1277;DHT22;631;51.024;13.826;2022-10-26T07:25:24;9.20;99.90
1277;DHT22;631;51.024;13.826;2022-10-26T07:27:50;9.30;99.90
1277;DHT22;631;51.024;13.826;2022-10-26T07:30:16;9.40;99.90
1277;DHT22;631;51.024;13.826;2022-10-26T07:32:42;9.50;99.90
1277;DHT22;631;51.024;13.826;2022-10-26T07:35:08;9.60;99.90
1277;DHT22;631;51.024;13.826;2022-10-26T07:37:33;9.80;99.90
1277;DHT22;631;51.024;13.826;2022-10-26T07:39:59;10.00;99.90
1277;DHT22;631;51.024;13.826;2022-10-26T07:42:24;10.20;99.90
1277;DHT22;631;51.024;13.826;2022-10-26T07:44:50;10.50;99.90
1277;DHT22;631;51.024;13.826;2022-10-26T07:47:16;10.70;99.90
1277;DHT22;631;51.024;13.826;2022-10-26T07:49:41;10.90;99.90
1277;DHT22;631;51.024;13.826;2022-10-26T07:52:08;11.30;99.90
1277;DHT22;631;51.024;13.826;2022-10-26T07:54:34;11.60;99.90
1277;DHT22;631;51.024;13.826;2022-10-26T07:56:59;11.70;99.90
1277;DHT22;631;51.024;13.826;2022-10-26T07:59:25;11.90;99.90
1277;DHT22;631;51.024;13.826;2022-10-26T08:01:51;12.00;99.90
1277;DHT22;631;51.024;13.826;2022-10-26T08:04:17;12.10;99.90
1277;DHT22;631;51.024;13.826;2022-10-26T08:06:43;12.10;99.90
1277;DHT22;631;51.024;13.826;2022-10-26T08:09:08;12.20;99.90
1277;DHT22;631;51.024;13.826;2022-10-26T08:11:34;12.40;99.90
1277;DHT22;631;51.024;13.826;2022-10-26T08:14:01;12.60;99.90
1277;DHT22;631;51.024;13.826;2022-10-26T08:16:27;12.80;99.90
1277;DHT22;631;51.024;13.826;2022-10-26T08:18:53;12.80;99.90
1277;DHT22;631;51.024;13.826;2022-10-26T08:21:18;12.90;99.90
1277;DHT22;631;51.024;13.826;2022-10-26T08:23:44;12.80;99.90
1277;DHT22;631;51.024;13.826;2022-10-26T08:26:10;12.90;99.90
1277;DHT22;631;51.024;13.826;2022-10-26T08:28:39;13.20;99.90
1277;DHT22;631;51.024;13.826;2022-10-26T08:31:05;13.90;99.90
1277;DHT22;631;51.024;13.826;2022-10-26T08:33:31;14.20;99.90
1277;DHT22;631;51.024;13.826;2022-10-26T08:35:58;14.70;99.90
1277;DHT22;631;51.024;13.826;2022-10-26T08:38:24;14.90;99.90
1277;DHT22;631;51.024;13.826;2022-10-26T08:40:51;14.70;99.90
1277;DHT22;631;51.024;13.826;2022-10-26T08:43:35;14.90;99.90
1277;DHT22;631;51.024;13.826;2022-10-26T08:46:08;15.30;99.90
1277;DHT22;631;51.024;13.826;2022-10-26T08:48:38;15.80;99.90
1277;DHT22;631;51.024;13.826;2022-10-26T08:51:18;16.20;99.90
1277;DHT22;631;51.024;13.826;2022-10-26T08:53:58;16.00;99.90
1277;DHT22;631;51.024;13.826;2022-10-26T08:56:25;16.70;99.90
1277;DHT22;631;51.024;13.826;2022-10-26T08:59:02;17.10;99.90
1277;DHT22;631;51.024;13.826;2022-10-26T09:01:30;17.60;99.90
1277;DHT22;631;51.024;13.826;2022-10-26T09:03:56;18.10;99.90
1277;DHT22;631;51.024;13.826;2022-10-26T09:09:19;18.70;99.90
1277;DHT22;631;51.024;13.826;2022-10-26T09:22:36;21.60;90.30
1277;DHT22;631;51.024;13.826;2022-10-26T09:25:18;22.20;88.00
1277;DHT22;631;51.024;13.826;2022-10-26T09:28:03;22.50;85.30
1277;DHT22;631;51.024;13.826;2022-10-26T09:30:31;23.00;83.20
1277;DHT22;631;51.024;13.826;2022-10-26T09:32:59;22.70;81.20
1277;DHT22;631;51.024;13.826;2022-10-26T09:35:40;23.00;81.70
1277;DHT22;631;51.024;13.826;2022-10-26T09:38:28;23.40;76.60
1277;DHT22;631;51.024;13.826;2022-10-26T09:46:32;20.10;89.30
1277;DHT22;631;51.024;13.826;2022-10-26T09:49:04;20.50;91.80
1277;DHT22;631;51.024;13.826;2022-10-26T09:51:32;20.80;89.90
1277;DHT22;631;51.024;13.826;2022-10-26T09:53:57;21.40;90.00
1277;DHT22;631;51.024;13.826;2022-10-26T09:56:26;22.00;85.90
1277;DHT22;631;51.024;13.826;2022-10-26T09:58:55;22.20;84.20
1277;DHT22;631;51.024;13.826;2022-10-26T10:01:27;22.40;83.90
1277;DHT22;631;51.024;13.826;2022-10-26T10:06:42;23.20;77.30
1277;DHT22;631;51.024;13.826;2022-10-26T10:11:51;23.50;76.60
1277;DHT22;631;51.024;13.826;2022-10-26T10:15:12;24.00;74.80
1277;DHT22;631;51.024;13.826;2022-10-26T10:17:21;24.40;71.80
1277;DHT22;631;51.024;13.826;2022-10-26T10:19:48;24.70;67.60
1277;DHT22;631;51.024;13.826;2022-10-26T10:24:41;24.90;65.90
1277;DHT22;631;51.024;13.826;2022-10-26T10:29:45;25.20;64.00
1277;DHT22;631;51.024;13.826;2022-10-26T10:32:19;25.40;62.30
1277;DHT22;631;51.024;13.826;2022-10-26T10:34:46;25.60;61.50
1277;DHT22;631;51.024;13.826;2022-10-26T10:37:32;26.00;60.10
1277;DHT22;631;51.024;13.826;2022-10-26T10:40:13;26.60;59.60
1277;DHT22;631;51.024;13.826;2022-10-26T10:42:41;27.10;55.50
1277;DHT22;631;51.024;13.826;2022-10-26T10:48:13;26.80;55.70
1277;DHT22;631;51.024;13.826;2022-10-26T10:51:00;27.10;53.50
1277;DHT22;631;51.024;13.826;2022-10-26T10:53:44;26.90;54.60
1277;DHT22;631;51.024;13.826;2022-10-26T10:56:24;27.30;53.50
1277;DHT22;631;51.024;13.826;2022-10-26T11:01:43;28.00;50.80
1277;DHT22;631;51.024;13.826;2022-10-26T11:04:33;27.80;50.30
1277;DHT22;631;51.024;13.826;2022-10-26T11:07:05;27.70;50.30
1277;DHT22;631;51.024;13.826;2022-10-26T11:09:35;28.00;48.90
1277;DHT22;631;51.024;13.826;2022-10-26T11:12:12;27.70;49.60
1277;DHT22;631;51.024;13.826;2022-10-26T11:14:42;27.60;49.00
1277;DHT22;631;51.024;13.826;2022-10-26T11:17:24;27.50;50.20
1277;DHT22;631;51.024;13.826;2022-10-26T11:20:00;27.40;49.20
1277;DHT22;631;51.024;13.826;2022-10-26T11:22:32;27.50;48.90
1277;DHT22;631;51.024;13.826;2022-10-26T11:25:03;27.90;48.80
1277;DHT22;631;51.024;13.826;2022-10-26T11:27:42;28.10;47.10
1277;DHT22;631;51.024;13.826;2022-10-26T11:30:21;28.10;46.70
1277;DHT22;631;51.024;13.826;2022-10-26T11:33:01;28.70;46.10
1277;DHT22;631;51.024;13.826;2022-10-26T11:38:38;29.00;45.20
1277;DHT22;631;51.024;13.826;2022-10-26T11:44:34;29.70;42.60
1277;DHT22;631;51.024;13.826;2022-10-26T11:47:13;29.80;41.70
1277;DHT22;631;51.024;13.826;2022-10-26T11:49:57;29.70;41.70
1277;DHT22;631;51.024;13.826;2022-10-26T11:52:32;29.60;41.60
1277;DHT22;631;51.024;13.826;2022-10-26T11:55:01;29.60;42.50
1277;DHT22;631;51.024;13.826;2022-10-26T11:57:31;29.50;42.70
1277;DHT22;631;51.024;13.826;2022-10-26T12:02:39;29.70;41.00
1277;DHT22;631;51.024;13.826;2022-10-26T12:07:45;30.10;40.40
1277;DHT22;631;51.024;13.826;2022-10-26T12:10:32;29.70;39.80
1277;DHT22;631;51.024;13.826;2022-10-26T12:13:26;29.60;41.00
1277;DHT22;631;51.024;13.826;2022-10-26T12:16:05;29.40;40.40
1277;DHT22;631;51.024;13.826;2022-10-26T12:21:14;29.70;40.80
1277;DHT22;631;51.024;13.826;2022-10-26T12:33:58;29.10;40.50
1277;DHT22;631;51.024;13.826;2022-10-26T12:36:46;28.10;41.30
1277;DHT22;631;51.024;13.826;2022-10-26T12:49:58;27.00;43.30
1277;DHT22;631;51.024;13.826;2022-10-26T12:55:14;26.30;46.90
1277;DHT22;631;51.024;13.826;2022-10-26T13:00:33;26.00;48.00
1277;DHT22;631;51.024;13.826;2022-10-26T13:06:16;25.30;50.10
1277;DHT22;631;51.024;13.826;2022-10-26T13:08:47;25.10;51.40
1277;DHT22;631;51.024;13.826;2022-10-26T13:11:31;24.70;51.90
1277;DHT22;631;51.024;13.826;2022-10-26T13:14:04;24.50;53.40
1277;DHT22;631;51.024;13.826;2022-10-26T13:16:31;24.10;55.00
1277;DHT22;631;51.024;13.826;2022-10-26T13:18:57;23.80;56.70
1277;DHT22;631;51.024;13.826;2022-10-26T13:21:24;23.30;57.70
1277;DHT22;631;51.024;13.826;2022-10-26T13:26:22;22.70;60.70
1277;DHT22;631;51.024;13.826;2022-10-26T13:36:40;22.00;71.60
1277;DHT22;631;51.024;13.826;2022-10-26T13:39:24;22.50;70.80
1277;DHT22;631;51.024;13.826;2022-10-26T13:41:53;23.30;66.00
1277;DHT22;631;51.024;13.826;2022-10-26T13:44:28;23.70;61.80
1277;DHT22;631;51.024;13.826;2022-10-26T13:47:01;23.80;61.70
1277;DHT22;631;51.024;13.826;2022-10-26T13:49:32;23.60;60.40
1277;DHT22;631;51.024;13.826;2022-10-26T13:52:01;23.30;62.80
1277;DHT22;631;51.024;13.826;2022-10-26T13:57:00;22.80;64.30
1277;DHT22;631;51.024;13.826;2022-10-26T13:59:27;22.60;66.10
1277;DHT22;631;51.024;13.826;2022-10-26T14:04:32;22.10;68.60
1277;DHT22;631;51.024;13.826;2022-10-26T14:06:58;21.70;68.20
1277;DHT22;631;51.024;13.826;2022-10-26T14:09:24;21.80;68.60
1277;DHT22;631;51.024;13.826;2022-10-26T14:14:31;22.20;67.60
1277;DHT22;631;51.024;13.826;2022-10-26T14:16:57;22.40;66.50
1277;DHT22;631;51.024;13.826;2022-10-26T14:19:38;22.90;66.30
1277;DHT22;631;51.024;13.826;2022-10-26T14:22:04;23.30;63.40
1277;DHT22;631;51.024;13.826;2022-10-26T14:24:35;23.70;60.30
1277;DHT22;631;51.024;13.826;2022-10-26T14:27:17;23.70;59.40
1277;DHT22;631;51.024;13.826;2022-10-26T14:29:43;23.40;60.10
1277;DHT22;631;51.024;13.826;2022-10-26T14:34:45;22.70;62.70
1277;DHT22;631;51.024;13.826;2022-10-26T14:39:48;22.10;65.70
1277;DHT22;631;51.024;13.826;2022-10-26T14:42:31;21.70;67.40
1277;DHT22;631;51.024;13.826;2022-10-26T14:44:58;21.40;70.10
1277;DHT22;631;51.024;13.826;2022-10-26T14:47:30;21.10;71.50
1277;DHT22;631;51.024;13.826;2022-10-26T14:49:56;20.90;72.90
1277;DHT22;631;51.024;13.826;2022-10-26T14:52:26;20.50;76.60
1277;DHT22;631;51.024;13.826;2022-10-26T14:57:39;20.10;81.60
1277;DHT22;631;51.024;13.826;2022-10-26T15:02:43;19.70;87.90
1277;DHT22;631;51.024;13.826;2022-10-26T15:05:25;19.70;90.50
1277;DHT22;631;51.024;13.826;2022-10-26T15:07:53;19.50;90.80
1277;DHT22;631;51.024;13.826;2022-10-26T15:15:51;18.90;94.60
1277;DHT22;631;51.024;13.826;2022-10-26T15:18:24;18.80;94.90
1277;DHT22;631;51.024;13.826;2022-10-26T15:20:51;18.70;95.30
1277;DHT22;631;51.024;13.826;2022-10-26T15:23:19;18.50;96.00
1277;DHT22;631;51.024;13.826;2022-10-26T15:25:58;18.20;98.10
1277;DHT22;631;51.024;13.826;2022-10-26T15:28:28;18.00;99.20
1277;DHT22;631;51.024;13.826;2022-10-26T15:31:04;17.90;99.90
1277;DHT22;631;51.024;13.826;2022-10-26T15:33:30;17.70;99.90
1277;DHT22;631;51.024;13.826;2022-10-26T15:36:23;17.50;99.90
1277;DHT22;631;51.024;13.826;2022-10-26T15:38:49;17.30;99.90
1277;DHT22;631;51.024;13.826;2022-10-26T15:43:50;17.20;99.90
1277;DHT22;631;51.024;13.826;2022-10-26T15:46:17;17.00;99.90
1277;DHT22;631;51.024;13.826;2022-10-26T15:48:48;16.80;99.90
1277;DHT22;631;51.024;13.826;2022-10-26T15:51:14;16.70;99.90
1277;DHT22;631;51.024;13.826;2022-10-26T15:53:39;16.60;99.90
1277;DHT22;631;51.024;13.826;2022-10-26T15:56:13;16.50;99.90
1277;DHT22;631;51.024;13.826;2022-10-26T15:58:40;16.40;99.90
1277;DHT22;631;51.024;13.826;2022-10-26T16:01:05;16.30;99.90
1277;DHT22;631;51.024;13.826;2022-10-26T16:03:31;16.20;99.90
1277;DHT22;631;51.024;13.826;2022-10-26T16:06:01;16.20;99.90
1277;DHT22;631;51.024;13.826;2022-10-26T16:08:28;16.20;99.90
1277;DHT22;631;51.024;13.826;2022-10-26T16:10:54;16.10;99.90
1277;DHT22;631;51.024;13.826;2022-10-26T16:13:20;16.00;99.90
1277;DHT22;631;51.024;13.826;2022-10-26T16:15:46;16.00;99.90
1277;DHT22;631;51.024;13.826;2022-10-26T16:18:12;15.90;99.90
1277;DHT22;631;51.024;13.826;2022-10-26T16:20:38;15.90;99.90
1277;DHT22;631;51.024;13.826;2022-10-26T16:23:03;15.80;99.90
1277;DHT22;631;51.024;13.826;2022-10-26T16:25:41;15.70;99.90
1277;DHT22;631;51.024;13.826;2022-10-26T16:28:09;15.70;99.90
1277;DHT22;631;51.024;13.826;2022-10-26T16:30:35;15.70;99.90
1277;DHT22;631;51.024;13.826;2022-10-26T16:33:01;15.70;99.90
1277;DHT22;631;51.024;13.826;2022-10-26T16:35:27;15.60;99.90
1277;DHT22;631;51.024;13.826;2022-10-26T16:37:52;15.60;99.90
1277;DHT22;631;51.024;13.826;2022-10-26T16:40:18;15.60;99.90
1277;DHT22;631;51.024;13.826;2022-10-26T16:42:43;15.50;99.90
1277;DHT22;631;51.024;13.826;2022-10-26T16:45:10;15.50;99.90
1277;DHT22;631;51.024;13.826;2022-10-26T16:47:36;15.50;99.90
1277;DHT22;631;51.024;13.826;2022-10-26T16:50:07;15.50;99.90
1277;DHT22;631;51.024;13.826;2022-10-26T16:52:34;15.40;99.90
1277;DHT22;631;51.024;13.826;2022-10-26T16:55:00;15.50;99.90
1277;DHT22;631;51.024;13.826;2022-10-26T16:57:26;15.40;99.90
1277;DHT22;631;51.024;13.826;2022-10-26T16:59:51;15.40;99.90
1277;DHT22;631;51.024;13.826;2022-10-26T17:02:17;15.40;99.90
1277;DHT22;631;51.024;13.826;2022-10-26T17:04:43;15.30;99.90
1277;DHT22;631;51.024;13.826;2022-10-26T17:07:09;15.30;99.90
1277;DHT22;631;51.024;13.826;2022-10-26T17:09:35;15.30;99.90
1277;DHT22;631;51.024;13.826;2022-10-26T17:12:00;15.30;99.90
1277;DHT22;631;51.024;13.826;2022-10-26T17:14:26;15.20;99.90
1277;DHT22;631;51.024;13.826;2022-10-26T17:16:52;15.20;99.90
1277;DHT22;631;51.024;13.826;2022-10-26T17:19:17;15.20;99.90
1277;DHT22;631;51.024;13.826;2022-10-26T17:21:43;15.20;99.90
1277;DHT22;631;51.024;13.826;2022-10-26T17:24:09;15.10;99.90
1277;DHT22;631;51.024;13.826;2022-10-26T17:26:35;15.20;99.90
1277;DHT22;631;51.024;13.826;2022-10-26T17:29:01;15.10;99.90
1277;DHT22;631;51.024;13.826;2022-10-26T17:31:27;15.10;99.90
1277;DHT22;631;51.024;13.826;2022-10-26T17:33:53;15.10;99.90
1277;DHT22;631;51.024;13.826;2022-10-26T17:36:25;15.10;99.90
1277;DHT22;631;51.024;13.826;2022-10-26T17:38:53;15.10;99.90
1277;DHT22;631;51.024;13.826;2022-10-26T17:41:20;15.00;99.90
1277;DHT22;631;51.024;13.826;2022-10-26T17:43:47;15.00;99.90
1277;DHT22;631;51.024;13.826;2022-10-26T17:46:14;15.10;99.90
1277;DHT22;631;51.024;13.826;2022-10-26T17:48:41;15.00;99.90
1277;DHT22;631;51.024;13.826;2022-10-26T17:51:17;15.00;99.90
1277;DHT22;631;51.024;13.826;2022-10-26T17:53:46;15.00;99.90
1277;DHT22;631;51.024;13.826;2022-10-26T17:56:18;15.00;99.90
1277;DHT22;631;51.024;13.826;2022-10-26T17:58:44;14.90;99.90
1277;DHT22;631;51.024;13.826;2022-10-26T18:01:14;14.80;99.90
1277;DHT22;631;51.024;13.826;2022-10-26T18:03:40;14.80;99.90
1277;DHT22;631;51.024;13.826;2022-10-26T18:06:07;14.80;99.90
1277;DHT22;631;51.024;13.826;2022-10-26T18:08:34;14.80;99.90
1277;DHT22;631;51.024;13.826;2022-10-26T18:10:59;14.90;99.90
1277;DHT22;631;51.024;13.826;2022-10-26T18:13:29;14.80;99.90
1277;DHT22;631;51.024;13.826;2022-10-26T18:16:09;14.80;99.90
1277;DHT22;631;51.024;13.826;2022-10-26T18:18:35;14.70;99.90
1277;DHT22;631;51.024;13.826;2022-10-26T18:21:07;14.70;99.90
1277;DHT22;631;51.024;13.826;2022-10-26T18:23:32;14.70;99.90
1277;DHT22;631;51.024;13.826;2022-10-26T18:26:18;14.70;99.90
1277;DHT22;631;51.024;13.826;2022-10-26T18:28:45;14.70;99.90
1277;DHT22;631;51.024;13.826;2022-10-26T18:31:13;14.70;99.90
1277;DHT22;631;51.024;13.826;2022-10-26T18:33:39;14.60;99.90
1277;DHT22;631;51.024;13.826;2022-10-26T18:36:09;14.60;99.90
1277;DHT22;631;51.024;13.826;2022-10-26T18:38:35;14.50;99.90
1277;DHT22;631;51.024;13.826;2022-10-26T18:41:01;14.50;99.90
1277;DHT22;631;51.024;13.826;2022-10-26T18:43:28;14.50;99.90
1277;DHT22;631;51.024;13.826;2022-10-26T18:46:20;14.50;99.90
1277;DHT22;631;51.024;13.826;2022-10-26T18:48:51;14.40;99.90
1277;DHT22;631;51.024;13.826;2022-10-26T18:51:19;14.40;99.90
1277;DHT22;631;51.024;13.826;2022-10-26T18:53:46;14.40;99.90
1277;DHT22;631;51.024;13.826;2022-10-26T18:56:17;14.30;99.90
1277;DHT22;631;51.024;13.826;2022-10-26T18:58:45;14.30;99.90
1277;DHT22;631;51.024;13.826;2022-10-26T19:01:20;14.30;99.90
1277;DHT22;631;51.024;13.826;2022-10-26T19:03:47;14.20;99.90
1277;DHT22;631;51.024;13.826;2022-10-26T19:06:18;14.20;99.90